Time;durP1;ratioP1;P1;durP2;ratioP2;P2;SDS_P1;SDS_P2;PMS_P1;PMS_P2;Temp;Humidity;BMP_temperature;BMP_pressure;BME280_temperature;BME280_humidity;BME280_pressure;Samples;Min_cycle;Max_cycle;Signal;HPM_P1;HPM_P2
2021/12/03 00:00:50;;;;;;;1.17;0.95;;;-0.60;99.90;;;;;;4820895;29;20486;-90
2021/12/03 00:03:19;;;;;;;0.85;0.57;;;-0.60;99.90;;;;;;4804450;29;20118;-90
2021/12/03 00:05:45;;;;;;;0.57;0.30;;;-0.60;99.90;;;;;;4808364;29;20042;-90
2021/12/03 00:08:17;;;;;;;0.20;0.20;;;-0.60;99.90;;;;;;4822052;29;20522;-90
2021/12/03 00:10:48;;;;;;;0.65;0.60;;;-0.60;99.90;;;;;;4819241;29;20144;-90
2021/12/03 00:13:28;;;;;;;0.30;0.30;;;-0.60;99.90;;;;;;4817704;29;20398;-91
2021/12/03 00:15:55;;;;;;;1.10;0.75;;;-0.60;99.90;;;;;;4796187;29;20040;-91
2021/12/03 00:18:24;;;;;;;0.43;0.43;;;-0.70;99.90;;;;;;4791284;29;20058;-92
2021/12/03 00:21:02;;;;;;;0.73;0.50;;;-0.70;99.90;;;;;;4780825;29;20042;-91
2021/12/03 00:23:28;;;;;;;0.30;0.30;;;-0.70;99.90;;;;;;4826630;29;20042;-91
2021/12/03 00:25:57;;;;;;;0.38;0.35;;;-0.70;99.90;;;;;;4813773;29;20036;-91
2021/12/03 00:28:22;;;;;;;0.20;0.20;;;-0.70;99.90;;;;;;4801157;29;20337;-91
2021/12/03 00:30:48;;;;;;;0.50;0.40;;;-0.70;99.90;;;;;;4796434;29;20037;-90
2021/12/03 00:33:20;;;;;;;0.30;0.30;;;-0.70;99.90;;;;;;4801491;29;20047;-92
2021/12/03 00:35:47;;;;;;;1.45;1.00;;;-0.70;99.90;;;;;;4799396;29;20042;-91
2021/12/03 00:38:23;;;;;;;1.80;0.60;;;-0.80;99.90;;;;;;4781324;29;20053;-92
2021/12/03 00:40:49;;;;;;;0.50;0.50;;;-0.80;99.90;;;;;;4823704;29;20562;-90
2021/12/03 00:43:18;;;;;;;1.02;0.95;;;-0.80;99.90;;;;;;4805767;29;20494;-91
2021/12/03 00:45:47;;;;;;;0.45;0.45;;;-0.80;99.90;;;;;;4819059;29;20382;-91
2021/12/03 00:48:19;;;;;;;0.40;0.30;;;-0.80;99.90;;;;;;4810376;29;20102;-91
2021/12/03 00:50:48;;;;;;;0.45;0.43;;;-0.70;99.90;;;;;;4831134;29;20518;-90
2021/12/03 00:53:27;;;;;;;0.77;0.40;;;-0.80;99.90;;;;;;4812256;29;20031;-91
2021/12/03 00:55:53;;;;;;;1.27;0.63;;;-0.80;99.90;;;;;;4815189;29;20348;-90
2021/12/03 00:58:18;;;;;;;3.95;0.95;;;-0.80;99.90;;;;;;4832207;29;20565;-91
2021/12/03 01:00:44;;;;;;;0.40;0.40;;;-0.80;99.90;;;;;;4817369;29;20038;-91
2021/12/03 01:03:15;;;;;;;0.22;0.22;;;-0.70;99.90;;;;;;4818960;29;20084;-91
2021/12/03 01:05:41;;;;;;;1.85;1.15;;;-0.70;99.90;;;;;;4820717;29;20132;-90
2021/12/03 01:08:06;;;;;;;0.30;0.30;;;-0.70;99.90;;;;;;4828163;29;20561;-90
2021/12/03 01:10:32;;;;;;;0.35;0.30;;;-0.70;99.90;;;;;;4819560;29;20125;-91
2021/12/03 01:12:58;;;;;;;0.50;0.40;;;-0.80;99.90;;;;;;4822065;29;20042;-90
2021/12/03 01:15:29;;;;;;;0.40;0.38;;;-0.70;99.90;;;;;;4800812;29;20044;-90
2021/12/03 01:17:55;;;;;;;0.30;0.30;;;-0.70;99.90;;;;;;4827131;29;20137;-92
2021/12/03 01:20:24;;;;;;;0.57;0.45;;;-0.70;99.90;;;;;;4818442;29;20124;-90
2021/12/03 01:22:54;;;;;;;0.90;0.50;;;-0.70;99.90;;;;;;4795540;29;20072;-91
2021/12/03 01:25:21;;;;;;;0.43;0.40;;;-0.70;99.90;;;;;;4835104;29;20509;-90
2021/12/03 01:27:48;;;;;;;0.82;0.73;;;-0.80;99.90;;;;;;4829195;29;20038;-90
2021/12/03 01:30:17;;;;;;;0.60;0.47;;;-0.80;99.90;;;;;;4836472;29;20046;-90
2021/12/03 01:32:46;;;;;;;0.93;0.63;;;-0.90;99.90;;;;;;4836784;29;20031;-91
2021/12/03 01:35:17;;;;;;;0.75;0.50;;;-0.90;99.90;;;;;;4806937;29;20515;-91
2021/12/03 01:37:54;;;;;;;0.30;0.30;;;-0.90;99.90;;;;;;4781640;29;20050;-91
2021/12/03 01:40:26;;;;;;;0.40;0.40;;;-0.90;99.90;;;;;;4797029;29;20030;-92
2021/12/03 01:43:03;;;;;;;0.70;0.50;;;-1.00;99.90;;;;;;4818295;29;20402;-91
2021/12/03 01:45:34;;;;;;;0.38;0.32;;;-0.90;99.90;;;;;;4825057;29;20568;-92
2021/12/03 01:48:01;;;;;;;0.38;0.38;;;-0.90;99.90;;;;;;4830669;29;20066;-90
2021/12/03 01:50:35;;;;;;;0.90;0.40;;;-0.90;99.90;;;;;;4844727;29;20038;-91
2021/12/03 01:53:27;;;;;;;0.30;0.30;;;-0.90;99.90;;;;;;4818569;29;20835;-91
2021/12/03 01:56:20;;;;;;;1.65;1.20;;;-0.80;99.90;;;;;;4819461;29;20036;-91
2021/12/03 01:58:48;;;;;;;0.30;0.30;;;-0.90;99.90;;;;;;4838523;29;20037;-91
2021/12/03 02:01:28;;;;;;;0.57;0.32;;;-0.90;99.90;;;;;;4851023;29;20493;-91
2021/12/03 02:03:58;;;;;;;0.68;0.47;;;-0.90;99.90;;;;;;4836750;29;20499;-91
2021/12/03 02:06:25;;;;;;;0.40;0.40;;;-0.90;99.90;;;;;;4826843;29;20026;-90
2021/12/03 02:08:53;;;;;;;0.63;0.52;;;-0.90;99.90;;;;;;4822034;29;20053;-90
2021/12/03 02:11:35;;;;;;;;;;;-1.00;99.90;;;;;;4823581;29;20480;-91
2021/12/03 02:14:09;;;;;;;0.85;0.40;;;-1.00;99.90;;;;;;4845186;29;19969;-90
2021/12/03 02:16:45;;;;;;;0.40;0.30;;;-1.10;99.90;;;;;;4821265;29;20821;-91
2021/12/03 02:19:29;;;;;;;0.30;0.30;;;-1.00;99.90;;;;;;4829641;29;20505;-91
2021/12/03 02:21:57;;;;;;;0.40;0.38;;;-1.10;99.90;;;;;;4825233;29;20030;-91
2021/12/03 02:24:32;;;;;;;0.95;0.65;;;-1.10;99.90;;;;;;4836689;29;20037;-91
2021/12/03 02:27:01;;;;;;;0.43;0.40;;;-1.10;99.90;;;;;;4811239;29;20045;-92
2021/12/03 02:29:27;;;;;;;0.43;0.40;;;-1.10;99.90;;;;;;4827660;29;20110;-91
2021/12/03 02:32:07;;;;;;;0.75;0.50;;;-1.10;99.90;;;;;;4808907;29;20050;-91
2021/12/03 02:34:38;;;;;;;0.30;0.30;;;-1.10;99.90;;;;;;4825757;29;20037;-91
2021/12/03 02:37:19;;;;;;;;;;;;;;;;;;;;;
2021/12/03 02:40:08;;;;;;;0.55;0.43;;;-1.00;99.90;;;;;;4820511;29;20038;-91
2021/12/03 02:42:44;;;;;;;0.75;0.60;;;-1.00;99.90;;;;;;4821205;29;20513;-92
2021/12/03 02:45:19;;;;;;;6.70;0.83;;;-1.00;99.90;;;;;;4827944;29;20410;-92
2021/12/03 02:47:45;;;;;;;0.57;0.45;;;-1.00;99.90;;;;;;4831217;29;20078;-92
2021/12/03 02:50:16;;;;;;;0.30;0.30;;;-1.10;99.90;;;;;;4830421;29;20580;-91
2021/12/03 02:52:53;;;;;;;0.77;0.52;;;-1.00;99.90;;;;;;4824389;29;20521;-90
2021/12/03 02:55:25;;;;;;;2.15;1.02;;;-1.00;99.90;;;;;;4807946;29;20054;-90
2021/12/03 02:57:56;;;;;;;0.50;0.40;;;-0.90;99.90;;;;;;4839247;29;20081;-90
2021/12/03 03:00:25;;;;;;;8.07;1.95;;;-0.90;99.90;;;;;;4841134;29;20037;-90
2021/12/03 03:02:51;;;;;;;0.93;0.73;;;-0.80;99.90;;;;;;4829691;29;20377;-90
2021/12/03 03:05:22;;;;;;;0.55;0.45;;;-0.80;99.90;;;;;;4829406;29;20033;-90
2021/12/03 03:07:48;;;;;;;0.40;0.40;;;-0.80;99.90;;;;;;4855530;29;20041;-90
2021/12/03 03:10:28;;;;;;;0.47;0.40;;;-0.90;99.90;;;;;;4817754;29;20048;-89
2021/12/03 03:13:03;;;;;;;0.30;0.30;;;-0.90;99.90;;;;;;4839954;29;20064;-89
2021/12/03 03:15:29;;;;;;;0.93;0.68;;;-0.80;99.90;;;;;;4826224;29;20044;-89
2021/12/03 03:18:09;;;;;;;0.30;0.30;;;-0.90;99.90;;;;;;4854045;29;20037;-89
2021/12/03 03:20:38;;;;;;;0.63;0.43;;;-0.90;99.90;;;;;;4795472;29;20638;-90
2021/12/03 03:23:32;;;;;;;0.30;0.30;;;-0.90;99.90;;;;;;4812926;29;20048;-90
2021/12/03 03:26:08;;;;;;;0.30;0.30;;;-0.90;99.90;;;;;;4783585;29;20577;-89
2021/12/03 03:28:41;;;;;;;2.15;0.38;;;-0.90;99.90;;;;;;4813372;29;20510;-91
2021/12/03 03:31:07;;;;;;;0.68;0.55;;;-0.90;99.90;;;;;;4842529;29;20462;-91
2021/12/03 03:33:36;;;;;;;0.57;0.30;;;-0.90;99.90;;;;;;4846953;29;20033;-91
2021/12/03 03:36:04;;;;;;;0.30;0.30;;;-1.00;99.90;;;;;;4838242;29;20682;-90
2021/12/03 03:38:33;;;;;;;1.13;0.93;;;-0.90;99.90;;;;;;4830844;29;20097;-90
2021/12/03 03:40:59;;;;;;;1.85;0.82;;;-0.90;99.90;;;;;;4848699;29;20033;-90
2021/12/03 03:43:24;;;;;;;0.40;0.40;;;-0.90;99.90;;;;;;4850968;29;20084;-89
2021/12/03 03:45:54;;;;;;;0.40;0.40;;;-1.00;99.90;;;;;;4835197;29;20041;-90
2021/12/03 03:48:20;;;;;;;0.30;0.30;;;-1.00;99.90;;;;;;4850939;29;20049;-90
2021/12/03 03:50:49;;;;;;;0.40;0.40;;;-1.00;99.90;;;;;;4841996;29;20116;-90
2021/12/03 03:53:14;;;;;;;1.58;1.00;;;-1.10;99.90;;;;;;4831897;29;20089;-90
2021/12/03 03:55:40;;;;;;;0.95;0.47;;;-1.00;99.90;;;;;;4838281;29;20037;-91
2021/12/03 03:58:07;;;;;;;1.48;1.02;;;-1.10;99.90;;;;;;4844300;29;20045;-91
2021/12/03 04:00:42;;;;;;;0.65;0.50;;;-1.10;99.90;;;;;;4796917;29;20083;-92
2021/12/03 04:03:09;;;;;;;0.70;0.43;;;-1.10;99.90;;;;;;4791478;29;20050;-91
2021/12/03 04:05:35;;;;;;;0.68;0.50;;;-1.10;99.90;;;;;;4799371;29;20121;-90
2021/12/03 04:08:10;;;;;;;0.30;0.30;;;-1.10;99.90;;;;;;4804073;29;20194;-91
2021/12/03 04:10:42;;;;;;;0.45;0.45;;;-1.10;99.90;;;;;;4786257;29;20095;-91
2021/12/03 04:13:13;;;;;;;0.30;0.30;;;-1.10;99.90;;;;;;4808566;29;20037;-91
2021/12/03 04:16:05;;;;;;;0.47;0.40;;;-1.10;99.90;;;;;;4826626;29;20045;-91
2021/12/03 04:18:33;;;;;;;1.00;0.85;;;-1.20;99.90;;;;;;4829119;29;20046;-92
2021/12/03 04:21:10;;;;;;;0.65;0.45;;;-1.20;99.90;;;;;;4830016;29;20029;-92
2021/12/03 04:23:42;;;;;;;0.88;0.70;;;-1.20;99.90;;;;;;4787569;29;20053;-92
2021/12/03 04:29:43;;;;;;;0.52;0.30;;;-1.10;99.90;;;;;;4822751;29;20101;-91
2021/12/03 04:32:09;;;;;;;0.65;0.50;;;-1.10;99.90;;;;;;4810124;29;20538;-91
2021/12/03 04:34:35;;;;;;;0.35;0.35;;;-1.10;99.90;;;;;;4826866;29;20036;-91
2021/12/03 04:37:02;;;;;;;0.40;0.35;;;-1.00;99.90;;;;;;4828326;29;20498;-90
2021/12/03 04:39:30;;;;;;;0.40;0.40;;;-1.00;99.90;;;;;;4825922;29;20033;-91
2021/12/03 04:42:07;;;;;;;;;;;;;;;;;;;;;
2021/12/03 04:44:40;;;;;;;1.13;0.70;;;-0.90;99.90;;;;;;4808343;29;20052;-91
2021/12/03 04:47:08;;;;;;;0.32;0.30;;;-0.80;99.90;;;;;;4820278;29;20466;-91
2021/12/03 04:49:40;;;;;;;0.30;0.30;;;-0.70;99.90;;;;;;4829306;29;20120;-91
2021/12/03 04:52:09;;;;;;;0.45;0.40;;;-0.70;99.90;;;;;;4833026;29;20045;-91
2021/12/03 04:54:38;;;;;;;0.40;0.40;;;-0.70;99.90;;;;;;4851923;29;20036;-91
2021/12/03 04:57:25;;;;;;;0.35;0.35;;;-0.70;99.90;;;;;;4805390;29;20102;-91
2021/12/03 04:59:51;;;;;;;0.30;0.30;;;-0.70;99.90;;;;;;4793010;29;20508;-91
2021/12/03 05:02:23;;;;;;;0.45;0.40;;;-0.60;99.90;;;;;;4800762;29;20038;-91
2021/12/03 05:05:15;;;;;;;0.88;0.43;;;-0.60;99.90;;;;;;4811780;29;20375;-91
2021/12/03 05:08:07;;;;;;;;;;;;;;;;;;;;;
2021/12/03 05:10:36;;;;;;;0.73;0.50;;;-0.50;99.90;;;;;;4832701;29;20555;-92
2021/12/03 05:13:24;;;;;;;0.30;0.30;;;-0.40;99.90;;;;;;4840270;29;20025;-83
2021/12/03 05:15:50;;;;;;;0.52;0.40;;;-0.40;99.90;;;;;;4856717;29;20041;-83
2021/12/03 05:18:18;;;;;;;0.30;0.30;;;-0.40;99.90;;;;;;4855922;29;20029;-83
2021/12/03 05:20:45;;;;;;;0.70;0.68;;;-0.40;99.90;;;;;;4854357;29;20094;-83
2021/12/03 05:23:11;;;;;;;1.67;0.65;;;-0.40;99.90;;;;;;4861453;29;20134;-83
2021/12/03 05:25:40;;;;;;;0.30;0.30;;;-0.40;99.90;;;;;;4835023;29;20045;-92
2021/12/03 05:28:09;;;;;;;0.52;0.43;;;-0.40;99.90;;;;;;4814127;29;20061;-91
2021/12/03 05:30:41;;;;;;;1.98;1.23;;;-0.40;99.90;;;;;;4806057;29;21205;-92
2021/12/03 05:33:13;;;;;;;0.45;0.32;;;-0.40;99.90;;;;;;4842982;29;20038;-91
2021/12/03 05:35:39;;;;;;;0.32;0.30;;;-0.30;99.90;;;;;;4809749;29;20037;-91
2021/12/03 05:38:16;;;;;;;0.43;0.40;;;-0.40;99.90;;;;;;4799724;29;20396;-92
2021/12/03 05:40:49;;;;;;;0.40;0.40;;;-0.40;99.90;;;;;;4805171;29;20037;-91
2021/12/03 05:43:20;;;;;;;0.30;0.20;;;-0.30;99.90;;;;;;4832570;29;20062;-94
2021/12/03 05:46:30;;;;;;;0.30;0.30;;;-0.40;99.90;;;;;;4758935;29;20413;-93
2021/12/03 05:49:40;;;;;;;;;;;;;;;;;;;;;
2021/12/03 05:52:12;;;;;;;0.73;0.40;;;-0.30;99.90;;;;;;4787734;29;20581;-93
2021/12/03 05:54:43;;;;;;;0.32;0.32;;;-0.30;99.90;;;;;;4846805;29;20465;-91
2021/12/03 05:57:32;;;;;;;0.43;0.32;;;-0.30;99.90;;;;;;4819081;29;20178;-93
2021/12/03 05:59:57;;;;;;;0.30;0.30;;;-0.30;99.90;;;;;;4814162;29;20041;-92
2021/12/03 06:02:23;;;;;;;0.40;0.40;;;-0.30;99.90;;;;;;4825997;29;20376;-92
2021/12/03 06:04:56;;;;;;;0.50;0.45;;;-0.30;99.90;;;;;;4813072;29;20038;-91
2021/12/03 06:07:22;;;;;;;0.90;0.45;;;-0.30;99.90;;;;;;4830114;29;20102;-89
2021/12/03 06:09:47;;;;;;;0.20;0.20;;;-0.20;99.90;;;;;;4854987;29;20107;-89
2021/12/03 06:12:13;;;;;;;0.28;0.28;;;0.10;99.90;;;;;;4856784;29;20041;-89
2021/12/03 06:14:38;;;;;;;1.25;0.70;;;0.20;99.90;;;;;;4831959;29;20033;-90
2021/12/03 06:17:13;;;;;;;0.70;0.43;;;0.10;99.90;;;;;;4848521;29;20620;-90
2021/12/03 06:19:46;;;;;;;0.85;0.63;;;0.10;99.90;;;;;;4844787;29;20612;-90
2021/12/03 06:22:14;;;;;;;0.65;0.45;;;0.10;99.90;;;;;;4861278;29;20051;-90
2021/12/03 06:24:40;;;;;;;0.45;0.45;;;0.10;99.90;;;;;;4851689;29;20044;-90
2021/12/03 06:27:12;;;;;;;0.95;0.60;;;0.20;99.90;;;;;;4844564;29;20118;-90
2021/12/03 06:29:48;;;;;;;0.70;0.60;;;0.20;99.90;;;;;;4844295;29;20553;-88
2021/12/03 06:32:16;;;;;;;0.40;0.38;;;0.20;99.90;;;;;;4836970;29;20041;-90
2021/12/03 06:34:42;;;;;;;1.20;0.93;;;0.30;99.90;;;;;;4858701;29;20033;-89
2021/12/03 06:37:08;;;;;;;0.77;0.55;;;0.30;99.90;;;;;;4855026;29;20052;-90
2021/12/03 06:39:35;;;;;;;0.30;0.30;;;0.30;99.90;;;;;;4844318;29;20120;-90
2021/12/03 06:42:03;;;;;;;0.77;0.50;;;0.30;99.90;;;;;;4846289;29;20057;-90
2021/12/03 06:44:32;;;;;;;0.30;0.30;;;0.40;99.90;;;;;;4833335;29;20050;-91
2021/12/03 06:47:00;;;;;;;1.58;1.05;;;0.40;99.90;;;;;;4852958;29;20033;-91
2021/12/03 06:49:43;;;;;;;;;;;;;;;;;;;;;
2021/12/03 06:52:19;;;;;;;1.05;0.50;;;0.40;99.90;;;;;;4796300;29;20044;-93
2021/12/03 06:55:05;;;;;;;2.28;0.75;;;0.50;99.90;;;;;;4821872;29;20043;-92
2021/12/03 06:57:41;;;;;;;0.98;0.73;;;0.40;99.90;;;;;;4819564;29;20150;-86
2021/12/03 07:00:09;;;;;;;1.02;0.95;;;0.50;99.90;;;;;;4842240;29;20038;-86
2021/12/03 07:02:35;;;;;;;0.77;0.55;;;0.50;99.90;;;;;;4835463;29;20125;-86
2021/12/03 07:05:04;;;;;;;0.47;0.40;;;0.50;99.90;;;;;;4846757;29;20108;-86
2021/12/03 07:07:29;;;;;;;2.30;1.48;;;0.60;99.90;;;;;;4840218;29;20029;-85
2021/12/03 07:09:56;;;;;;;1.55;0.90;;;0.60;99.90;;;;;;4855951;29;20036;-85
2021/12/03 07:12:21;;;;;;;0.77;0.60;;;0.60;99.90;;;;;;4858899;29;20030;-91
2021/12/03 07:14:47;;;;;;;0.93;0.63;;;0.70;99.90;;;;;;4842812;29;20214;-90
2021/12/03 07:17:18;;;;;;;0.57;0.47;;;0.70;99.90;;;;;;4831298;29;20276;-92
2021/12/03 07:19:57;;;;;;;0.63;0.45;;;0.70;99.90;;;;;;4822336;29;20097;-90
2021/12/03 07:22:24;;;;;;;0.80;0.63;;;0.70;99.90;;;;;;4843334;29;20050;-89
2021/12/03 07:24:52;;;;;;;1.02;0.70;;;0.80;99.90;;;;;;4846217;29;20048;-90
2021/12/03 07:27:18;;;;;;;0.80;0.50;;;0.80;99.90;;;;;;4839152;29;20037;-89
2021/12/03 07:30:06;;;;;;;0.30;0.30;;;0.80;99.90;;;;;;4791768;29;20149;-90
2021/12/03 07:32:33;;;;;;;1.17;0.80;;;0.90;99.90;;;;;;4802180;29;20035;-90
2021/12/03 07:35:02;;;;;;;1.05;0.55;;;0.90;99.90;;;;;;4791374;29;20045;-90
2021/12/03 07:37:47;;;;;;;0.88;0.80;;;1.00;99.90;;;;;;4833873;29;20030;-89
2021/12/03 07:40:14;;;;;;;0.65;0.50;;;1.00;99.90;;;;;;4845556;29;20063;-90
2021/12/03 07:42:40;;;;;;;0.57;0.50;;;1.10;99.90;;;;;;4853767;29;20471;-91
2021/12/03 07:45:08;;;;;;;0.80;0.60;;;1.10;99.90;;;;;;4843755;29;20045;-93
2021/12/03 07:47:35;;;;;;;5.38;2.65;;;1.20;99.90;;;;;;4826019;29;20030;-91
2021/12/03 07:50:01;;;;;;;0.77;0.32;;;1.20;99.90;;;;;;4854592;29;20058;-90
2021/12/03 07:52:28;;;;;;;0.30;0.30;;;1.30;99.90;;;;;;4847754;29;20033;-88
2021/12/03 07:54:53;;;;;;;0.60;0.50;;;1.30;99.90;;;;;;4863258;29;20109;-91
2021/12/03 07:57:19;;;;;;;0.57;0.40;;;1.30;99.90;;;;;;4809108;29;20755;-91
2021/12/03 07:59:45;;;;;;;1.48;0.73;;;1.40;99.90;;;;;;4833184;29;20053;-89
2021/12/03 08:02:11;;;;;;;2.72;0.60;;;1.40;99.90;;;;;;4859287;29;20044;-90
2021/12/03 08:04:37;;;;;;;0.85;0.60;;;1.50;99.90;;;;;;4854892;29;20661;-92
2021/12/03 08:07:03;;;;;;;2.75;0.73;;;1.50;99.90;;;;;;4861586;29;20105;-89
2021/12/03 08:09:29;;;;;;;0.85;0.50;;;1.50;99.90;;;;;;4833503;29;20037;-90
2021/12/03 08:11:54;;;;;;;1.70;0.45;;;1.50;99.90;;;;;;4831089;29;20099;-91
2021/12/03 08:14:20;;;;;;;0.63;0.50;;;1.50;99.90;;;;;;4860216;29;20032;-91
2021/12/03 08:16:49;;;;;;;1.63;1.05;;;1.50;99.90;;;;;;4847799;29;20159;-91
2021/12/03 08:19:14;;;;;;;0.47;0.45;;;1.50;99.90;;;;;;4831819;29;20056;-91
2021/12/03 08:21:40;;;;;;;0.70;0.50;;;1.50;99.90;;;;;;4850149;29;20037;-90
2021/12/03 08:24:14;;;;;;;0.85;0.63;;;1.40;99.90;;;;;;4832672;29;20371;-90
2021/12/03 08:26:40;;;;;;;1.60;0.70;;;1.40;99.90;;;;;;4837400;29;20256;-91
2021/12/03 08:29:06;;;;;;;1.20;0.63;;;1.50;99.90;;;;;;4837404;29;20046;-91
2021/12/03 08:31:40;;;;;;;1.05;0.40;;;1.50;99.90;;;;;;4828446;29;20029;-91
2021/12/03 08:34:11;;;;;;;1.95;0.73;;;1.50;99.90;;;;;;4845633;29;20497;-90
2021/12/03 08:36:46;;;;;;;0.60;0.50;;;1.50;99.90;;;;;;4833556;29;20106;-90
2021/12/03 08:39:12;;;;;;;0.50;0.40;;;1.60;99.90;;;;;;4833091;29;20041;-91
2021/12/03 08:41:38;;;;;;;0.82;0.77;;;1.60;99.90;;;;;;4820017;29;20036;-90
2021/12/03 08:44:04;;;;;;;1.95;1.38;;;1.70;99.90;;;;;;4832641;29;20109;-89
2021/12/03 08:46:33;;;;;;;0.57;0.40;;;1.70;99.90;;;;;;4803818;29;20052;-90
2021/12/03 08:49:29;;;;;;;1.05;0.95;;;1.70;99.90;;;;;;4782474;29;20202;-89
2021/12/03 08:57:13;;;;;;;0.90;0.77;;;1.90;99.90;;;;;;4822074;29;20632;-90
2021/12/03 08:59:41;;;;;;;1.52;0.70;;;1.90;99.90;;;;;;4826151;29;20049;-90
2021/12/03 09:02:22;;;;;;;0.88;0.55;;;2.00;99.90;;;;;;4832149;29;20118;-89
2021/12/03 09:04:48;;;;;;;1.35;0.70;;;2.10;99.90;;;;;;4823931;29;20268;-89
2021/12/03 09:07:17;;;;;;;0.73;0.52;;;2.20;99.90;;;;;;4822442;29;20037;-89
2021/12/03 09:09:42;;;;;;;2.47;0.98;;;2.20;99.90;;;;;;4825668;29;20041;-89
2021/12/03 09:12:09;;;;;;;0.25;0.25;;;2.20;99.90;;;;;;4836158;29;20449;-89
2021/12/03 09:20:52;;;;;;;0.45;0.43;;;2.20;99.90;;;;;;4853526;29;20037;-89
2021/12/03 09:22:42;;;;;;;0.55;0.40;;;2.30;99.90;;;;;;4820917;29;20046;-89
2021/12/03 09:25:15;;;;;;;1.88;1.10;;;2.40;99.90;;;;;;4846644;29;20045;-88
2021/12/03 09:27:51;;;;;;;1.00;0.45;;;2.50;99.90;;;;;;4868733;29;20036;-89
2021/12/03 09:30:19;;;;;;;1.13;0.50;;;2.60;99.90;;;;;;4822407;29;20339;-88
2021/12/03 09:32:52;;;;;;;0.55;0.40;;;2.60;99.90;;;;;;4819847;29;20058;-90
2021/12/03 09:35:23;;;;;;;0.65;0.47;;;2.70;99.90;;;;;;4841505;29;20233;-88
2021/12/03 09:37:49;;;;;;;1.65;0.73;;;2.70;99.90;;;;;;4862194;29;20034;-87
2021/12/03 09:40:20;;;;;;;0.68;0.57;;;2.70;99.90;;;;;;4853681;29;20044;-89
2021/12/03 09:42:59;;;;;;;0.77;0.50;;;2.80;99.90;;;;;;4855547;29;20029;-89
2021/12/03 09:45:31;;;;;;;0.95;0.43;;;2.90;99.90;;;;;;4854485;29;20041;-88
2021/12/03 09:48:00;;;;;;;1.67;0.63;;;3.10;99.90;;;;;;4868400;29;20117;-89
2021/12/03 09:50:27;;;;;;;0.95;0.50;;;3.50;99.90;;;;;;4848335;29;20467;-89
2021/12/03 09:53:08;;;;;;;0.40;0.35;;;3.60;99.90;;;;;;4834509;29;20061;-90
2021/12/03 09:55:34;;;;;;;2.17;0.40;;;4.10;99.90;;;;;;4867578;29;20028;-89
2021/12/03 09:58:37;;;;;;;1.17;0.60;;;4.70;99.90;;;;;;4841871;29;20026;-89
2021/12/03 10:01:11;;;;;;;0.90;0.45;;;4.80;99.90;;;;;;4849925;29;20140;-89
2021/12/03 10:04:02;;;;;;;0.47;0.47;;;4.50;99.90;;;;;;4853307;29;20112;-90
2021/12/03 10:43:39;;;;;;;0.85;0.40;;;5.80;99.90;;;;;;4687662;30;20062;-91
2021/12/03 10:46:20;;;;;;;1.10;0.50;;;5.40;99.90;;;;;;4682913;30;20062;-91
2021/12/03 11:03:16;;;;;;;2.33;1.05;;;5.60;99.90;;;;;;4727151;30;20055;-89
2021/12/03 11:37:16;;;;;;;2.35;1.10;;;5.50;99.90;;;;;;4872850;29;20037;-90
2021/12/03 11:48:29;;;;;;;1.58;0.50;;;5.20;99.90;;;;;;4859477;29;20100;-90
2021/12/03 11:59:49;;;;;;;0.98;0.57;;;4.90;99.90;;;;;;4835893;29;20133;-90
2021/12/03 13:11:53;;;;;;;1.15;0.68;;;3.40;99.90;;;;;;4848832;29;20048;-90
2021/12/03 13:17:49;;;;;;;1.73;0.77;;;3.30;99.90;;;;;;4813151;29;20037;-90
2021/12/03 13:46:47;;;;;;;4.55;1.65;;;3.10;99.90;;;;;;4776957;29;20097;-91
2021/12/03 13:59:52;;;;;;;2.13;1.00;;;3.10;99.90;;;;;;4773194;29;20523;-90
2021/12/03 14:41:09;;;;;;;2.20;0.90;;;2.60;99.90;;;;;;4754570;29;20040;-86
2021/12/03 14:56:23;;;;;;;1.48;0.88;;;2.70;99.90;;;;;;4844209;29;20042;-89
2021/12/03 14:59:55;;;;;;;1.30;0.70;;;2.70;99.90;;;;;;4844331;29;20517;-90
2021/12/03 15:08:22;;;;;;;1.30;0.90;;;2.70;99.90;;;;;;4810337;29;20046;-88
2021/12/03 15:32:15;;;;;;;3.55;1.73;;;2.60;99.90;;;;;;4872720;29;20044;-87
2021/12/03 16:15:23;;;;;;;1.65;0.60;;;2.50;99.90;;;;;;4752835;29;20130;-89
2021/12/03 16:23:27;;;;;;;1.50;0.77;;;2.50;99.90;;;;;;4837766;29;20079;-90
2021/12/03 16:56:25;;;;;;;;;;;;;;;;;;;;;
2021/12/03 17:03:37;;;;;;;1.75;0.82;;;2.40;99.90;;;;;;4793670;29;20638;-89
2021/12/03 17:09:24;;;;;;;2.65;1.10;;;2.40;99.90;;;;;;4762168;29;20043;-89
2021/12/03 18:00:42;;;;;;;1.45;0.88;;;2.70;99.90;;;;;;4797628;29;20040;-87
2021/12/03 19:10:02;;;;;;;2.75;0.98;;;2.40;99.90;;;;;;4703449;30;20128;-90
2021/12/03 19:12:52;;;;;;;;;;;2.40;99.90;;;;;;4679079;30;20041;-90
2021/12/03 19:18:59;;;;;;;0.60;0.38;;;2.40;99.90;;;;;;4664307;30;20057;-90
2021/12/03 19:24:58;;;;;;;1.63;0.88;;;2.50;99.90;;;;;;4643799;30;20053;-91
2021/12/03 19:31:34;;;;;;;1.45;0.90;;;2.50;99.90;;;;;;4645840;30;20077;-91
2021/12/03 19:41:18;;;;;;;2.80;1.05;;;2.50;99.90;;;;;;4662887;30;20141;-87
2021/12/03 19:44:05;;;;;;;1.90;1.08;;;2.50;99.90;;;;;;4639301;30;20546;-89
2021/12/03 19:47:29;;;;;;;0.95;0.57;;;2.50;99.90;;;;;;4645003;30;20046;-89
2021/12/03 19:54:05;;;;;;;1.20;0.65;;;2.40;99.90;;;;;;4602649;30;20039;-89
2021/12/03 19:56:33;;;;;;;1.45;0.80;;;2.50;99.90;;;;;;4620631;30;20970;-90
2021/12/03 20:03:25;;;;;;;1.85;1.17;;;2.50;99.90;;;;;;4584981;30;20679;-90
2021/12/03 20:05:53;;;;;;;0.68;0.50;;;2.50;99.90;;;;;;4576279;30;20051;-90
2021/12/03 20:08:27;;;;;;;1.30;0.75;;;2.50;99.90;;;;;;4597652;30;20138;-90
2021/12/03 20:11:41;;;;;;;2.08;1.10;;;2.50;99.90;;;;;;4591037;30;20142;-90
2021/12/03 20:14:10;;;;;;;0.50;0.40;;;2.50;99.90;;;;;;4599257;30;20043;-90
2021/12/03 20:17:03;;;;;;;;;;;;;;;;;;;;;
2021/12/03 20:19:38;;;;;;;1.45;0.80;;;2.50;99.90;;;;;;4656875;30;20056;-89
2021/12/03 20:22:24;;;;;;;3.80;1.35;;;2.50;99.90;;;;;;4653303;30;20037;-88
2021/12/03 20:25:47;;;;;;;;;;;;;;;;;;;;;
2021/12/03 20:30:51;;;;;;;1.65;0.98;;;2.30;99.90;;;;;;4781009;29;20042;-88
2021/12/03 20:54:34;;;;;;;0.93;0.70;;;1.60;99.90;;;;;;4782920;29;20049;-88
2021/12/03 21:10:27;;;;;;;1.98;1.05;;;1.60;99.90;;;;;;4724506;29;20061;-88
2021/12/03 21:13:31;;;;;;;1.10;0.68;;;1.60;99.90;;;;;;4738465;30;20041;-88
2021/12/03 21:23:42;;;;;;;2.42;0.60;;;1.60;99.90;;;;;;4651389;30;20609;-88
2021/12/03 21:27:31;;;;;;;0.95;0.75;;;1.60;99.90;;;;;;4712163;30;20489;-89
2021/12/03 21:43:31;;;;;;;1.10;0.77;;;1.80;99.90;;;;;;4726874;29;20078;-90
2021/12/03 21:46:23;;;;;;;0.82;0.70;;;1.80;99.90;;;;;;4758261;30;20359;-90
2021/12/03 21:49:15;;;;;;;1.13;0.50;;;1.90;99.90;;;;;;4719643;30;20050;-88
2021/12/03 21:52:34;;;;;;;;;;;;;;;;;;;;;
2021/12/03 21:55:07;;;;;;;1.50;0.80;;;2.00;99.90;;;;;;4820835;29;20608;-89
2021/12/03 22:01:21;;;;;;;1.77;0.80;;;2.00;99.90;;;;;;4730660;29;20034;-89
2021/12/03 22:11:34;;;;;;;0.90;0.55;;;1.80;99.90;;;;;;4733692;29;20079;-90
2021/12/03 22:21:21;;;;;;;0.85;0.68;;;1.70;99.90;;;;;;4743831;29;20049;-90
2021/12/03 22:23:49;;;;;;;2.38;0.95;;;1.60;99.90;;;;;;4738392;29;20170;-90
2021/12/03 22:26:19;;;;;;;1.25;0.68;;;1.60;99.90;;;;;;4751672;29;20084;-89
2021/12/03 22:28:45;;;;;;;2.00;0.90;;;1.60;99.90;;;;;;4761023;29;20035;-89
2021/12/03 22:31:11;;;;;;;0.90;0.60;;;1.50;99.90;;;;;;4755636;29;20088;-88
2021/12/03 22:33:39;;;;;;;0.65;0.57;;;1.50;99.90;;;;;;4767851;29;20032;-89
2021/12/03 22:36:05;;;;;;;0.90;0.68;;;1.50;99.90;;;;;;4752072;30;20050;-89
2021/12/03 22:38:31;;;;;;;1.30;0.77;;;1.50;99.90;;;;;;4756005;29;20032;-90
2021/12/03 22:40:57;;;;;;;3.00;1.15;;;1.50;99.90;;;;;;4760271;29;20042;-91
2021/12/03 22:43:24;;;;;;;0.77;0.43;;;1.40;99.90;;;;;;4744686;30;20143;-88
2021/12/03 22:46:05;;;;;;;1.40;0.60;;;1.40;99.90;;;;;;4768639;29;20132;-90
2021/12/03 22:51:03;;;;;;;1.20;0.68;;;1.40;99.90;;;;;;4769728;29;20036;-90
2021/12/03 22:53:29;;;;;;;1.13;0.60;;;1.40;99.90;;;;;;4737556;29;20489;-88
2021/12/03 22:55:55;;;;;;;1.20;0.60;;;1.40;99.90;;;;;;4745345;30;20032;-89
2021/12/03 22:58:23;;;;;;;5.25;1.52;;;1.50;99.90;;;;;;4817924;29;20034;-89
2021/12/03 23:01:01;;;;;;;0.77;0.52;;;1.50;99.90;;;;;;4811062;29;20107;-89
2021/12/03 23:03:27;;;;;;;;;;;1.60;99.90;;;;;;4817845;29;20033;-89
2021/12/03 23:05:53;;;;;;;;;;;1.60;99.90;;;;;;4830390;29;19916;-89
2021/12/03 23:08:19;;;;;;;;;;;1.70;99.90;;;;;;4814134;29;19924;-89
2021/12/03 23:10:44;;;;;;;;;;;1.70;99.90;;;;;;4820182;29;19916;-88
2021/12/03 23:13:10;;;;;;;;;;;1.70;99.90;;;;;;4819435;29;20289;-89
2021/12/03 23:15:35;;;;;;;;;;;1.70;99.90;;;;;;4821407;29;19924;-90
2021/12/03 23:18:03;;;;;;;;;;;1.70;99.90;;;;;;4820875;29;19935;-90
2021/12/03 23:20:29;;;;;;;;;;;1.60;99.90;;;;;;4843985;29;19920;-90
2021/12/03 23:22:55;;;;;;;;;;;1.60;99.90;;;;;;4833294;29;19913;-90
2021/12/03 23:25:23;;;;;;;;;;;1.60;99.90;;;;;;4810802;29;19917;-89
2021/12/03 23:27:49;;;;;;;;;;;1.60;99.90;;;;;;4822616;29;19968;-89
2021/12/03 23:30:14;;;;;;;;;;;1.60;99.90;;;;;;4822002;29;19916;-90
2021/12/03 23:32:41;;;;;;;;;;;1.50;99.90;;;;;;4825405;29;19919;-90
2021/12/03 23:35:07;;;;;;;;;;;1.50;99.90;;;;;;4833974;29;19969;-90
2021/12/03 23:37:34;;;;;;;;;;;1.50;99.90;;;;;;4828718;29;19916;-90
2021/12/03 23:40:03;;;;;;;;;;;1.40;99.90;;;;;;4830460;29;19920;-90
2021/12/03 23:42:28;;;;;;;;;;;1.40;99.90;;;;;;4829983;29;19916;-89
2021/12/03 23:44:54;;;;;;;;;;;1.50;99.90;;;;;;4832812;29;20379;-90